sensor_id;sensor_type;location;lat;lon;timestamp;temperature;humidity
1277;DHT22;631;51.024;13.826;2024-01-15T00:01:50;3.30;1.00
1277;DHT22;631;51.024;13.826;2024-01-15T00:04:15;3.20;1.00
1277;DHT22;631;51.024;13.826;2024-01-15T00:06:41;3.20;1.00
1277;DHT22;631;51.024;13.826;2024-01-15T00:09:06;3.10;1.00
1277;DHT22;631;51.024;13.826;2024-01-15T00:11:32;3.10;1.00
1277;DHT22;631;51.024;13.826;2024-01-15T00:13:58;3.10;1.00
1277;DHT22;631;51.024;13.826;2024-01-15T00:16:24;3.10;1.00
1277;DHT22;631;51.024;13.826;2024-01-15T00:18:50;3.20;1.00
1277;DHT22;631;51.024;13.826;2024-01-15T00:21:15;3.10;1.00
1277;DHT22;631;51.024;13.826;2024-01-15T00:23:44;3.10;1.00
1277;DHT22;631;51.024;13.826;2024-01-15T00:26:10;3.00;1.00
1277;DHT22;631;51.024;13.826;2024-01-15T00:28:37;3.10;1.00
1277;DHT22;631;51.024;13.826;2024-01-15T00:31:03;3.00;1.00
1277;DHT22;631;51.024;13.826;2024-01-15T00:33:29;2.90;1.00
1277;DHT22;631;51.024;13.826;2024-01-15T00:35:55;2.90;1.00
1277;DHT22;631;51.024;13.826;2024-01-15T00:38:20;2.90;1.00
1277;DHT22;631;51.024;13.826;2024-01-15T00:40:46;3.00;1.00
1277;DHT22;631;51.024;13.826;2024-01-15T00:43:12;2.90;1.00
1277;DHT22;631;51.024;13.826;2024-01-15T00:45:37;2.90;1.00
1277;DHT22;631;51.024;13.826;2024-01-15T00:48:04;2.90;1.00
1277;DHT22;631;51.024;13.826;2024-01-15T00:50:30;2.90;1.00
1277;DHT22;631;51.024;13.826;2024-01-15T00:52:55;2.90;1.00
1277;DHT22;631;51.024;13.826;2024-01-15T00:55:21;2.90;1.00
1277;DHT22;631;51.024;13.826;2024-01-15T00:57:46;2.80;1.00
1277;DHT22;631;51.024;13.826;2024-01-15T01:00:12;2.90;1.00
1277;DHT22;631;51.024;13.826;2024-01-15T01:02:38;2.90;1.00
1277;DHT22;631;51.024;13.826;2024-01-15T01:05:04;2.80;1.00
1277;DHT22;631;51.024;13.826;2024-01-15T01:07:30;2.90;1.00
1277;DHT22;631;51.024;13.826;2024-01-15T01:09:55;2.90;1.00
1277;DHT22;631;51.024;13.826;2024-01-15T01:12:21;3.00;1.00
1277;DHT22;631;51.024;13.826;2024-01-15T01:14:47;2.90;1.00
1277;DHT22;631;51.024;13.826;2024-01-15T01:17:12;2.90;1.00
1277;DHT22;631;51.024;13.826;2024-01-15T01:19:38;2.90;1.00
1277;DHT22;631;51.024;13.826;2024-01-15T01:22:03;2.90;1.00
1277;DHT22;631;51.024;13.826;2024-01-15T01:24:29;2.90;1.00
1277;DHT22;631;51.024;13.826;2024-01-15T01:26:55;2.90;1.00
1277;DHT22;631;51.024;13.826;2024-01-15T01:29:20;2.90;1.00
1277;DHT22;631;51.024;13.826;2024-01-15T01:31:46;2.90;1.00
1277;DHT22;631;51.024;13.826;2024-01-15T01:34:15;2.90;1.00
1277;DHT22;631;51.024;13.826;2024-01-15T01:36:44;2.90;1.00
1277;DHT22;631;51.024;13.826;2024-01-15T01:39:10;2.90;1.00
1277;DHT22;631;51.024;13.826;2024-01-15T01:41:36;2.90;1.00
1277;DHT22;631;51.024;13.826;2024-01-15T01:44:01;2.80;1.00
1277;DHT22;631;51.024;13.826;2024-01-15T01:46:28;2.80;1.00
1277;DHT22;631;51.024;13.826;2024-01-15T01:48:55;2.70;1.00
1277;DHT22;631;51.024;13.826;2024-01-15T01:51:23;2.80;1.00
1277;DHT22;631;51.024;13.826;2024-01-15T01:53:50;2.70;1.00
1277;DHT22;631;51.024;13.826;2024-01-15T01:56:16;2.70;1.00
1277;DHT22;631;51.024;13.826;2024-01-15T01:58:44;2.70;1.00
1277;DHT22;631;51.024;13.826;2024-01-15T02:01:11;2.70;1.00
1277;DHT22;631;51.024;13.826;2024-01-15T02:03:37;2.80;1.00
1277;DHT22;631;51.024;13.826;2024-01-15T02:06:03;2.80;1.00
1277;DHT22;631;51.024;13.826;2024-01-15T02:08:29;2.90;1.00
1277;DHT22;631;51.024;13.826;2024-01-15T02:10:55;2.80;1.00
1277;DHT22;631;51.024;13.826;2024-01-15T02:13:21;2.80;1.00
1277;DHT22;631;51.024;13.826;2024-01-15T02:15:47;2.80;1.00
1277;DHT22;631;51.024;13.826;2024-01-15T02:18:12;2.80;1.00
1277;DHT22;631;51.024;13.826;2024-01-15T02:20:38;2.80;1.00
1277;DHT22;631;51.024;13.826;2024-01-15T02:23:11;2.80;1.00
1277;DHT22;631;51.024;13.826;2024-01-15T02:25:42;2.80;1.00
1277;DHT22;631;51.024;13.826;2024-01-15T02:28:15;2.80;1.00
1277;DHT22;631;51.024;13.826;2024-01-15T02:30:42;2.80;1.00
1277;DHT22;631;51.024;13.826;2024-01-15T02:33:09;2.80;1.00
1277;DHT22;631;51.024;13.826;2024-01-15T02:35:35;2.80;1.00
1277;DHT22;631;51.024;13.826;2024-01-15T02:38:07;2.80;1.00
1277;DHT22;631;51.024;13.826;2024-01-15T02:40:33;2.80;1.00
1277;DHT22;631;51.024;13.826;2024-01-15T02:42:59;2.80;1.00
1277;DHT22;631;51.024;13.826;2024-01-15T02:45:25;2.60;1.00
1277;DHT22;631;51.024;13.826;2024-01-15T02:47:50;2.60;1.00
1277;DHT22;631;51.024;13.826;2024-01-15T02:50:16;2.60;1.00
1277;DHT22;631;51.024;13.826;2024-01-15T02:52:42;2.60;1.00
1277;DHT22;631;51.024;13.826;2024-01-15T02:55:08;2.60;1.00
1277;DHT22;631;51.024;13.826;2024-01-15T02:57:34;2.60;1.00
1277;DHT22;631;51.024;13.826;2024-01-15T02:59:59;2.60;1.00
1277;DHT22;631;51.024;13.826;2024-01-15T03:02:25;2.50;1.00
1277;DHT22;631;51.024;13.826;2024-01-15T03:04:51;2.50;1.00
1277;DHT22;631;51.024;13.826;2024-01-15T03:07:16;2.50;1.00
1277;DHT22;631;51.024;13.826;2024-01-15T03:09:42;2.50;1.00
1277;DHT22;631;51.024;13.826;2024-01-15T03:12:08;2.50;1.00
1277;DHT22;631;51.024;13.826;2024-01-15T03:14:33;2.50;1.00
1277;DHT22;631;51.024;13.826;2024-01-15T03:17:00;2.50;1.00
1277;DHT22;631;51.024;13.826;2024-01-15T03:19:26;2.50;1.00
1277;DHT22;631;51.024;13.826;2024-01-15T03:21:53;2.50;1.00
1277;DHT22;631;51.024;13.826;2024-01-15T03:24:18;2.40;1.00
1277;DHT22;631;51.024;13.826;2024-01-15T03:26:44;2.40;1.00
1277;DHT22;631;51.024;13.826;2024-01-15T03:29:10;2.40;1.00
1277;DHT22;631;51.024;13.826;2024-01-15T03:31:35;2.40;1.00
1277;DHT22;631;51.024;13.826;2024-01-15T03:34:01;2.50;1.00
1277;DHT22;631;51.024;13.826;2024-01-15T03:36:26;2.40;1.00
1277;DHT22;631;51.024;13.826;2024-01-15T03:38:52;2.30;1.00
1277;DHT22;631;51.024;13.826;2024-01-15T03:41:17;2.30;1.00
1277;DHT22;631;51.024;13.826;2024-01-15T03:43:43;2.30;1.00
1277;DHT22;631;51.024;13.826;2024-01-15T03:46:09;2.30;1.00
1277;DHT22;631;51.024;13.826;2024-01-15T03:48:34;2.30;1.00
1277;DHT22;631;51.024;13.826;2024-01-15T03:51:00;2.30;1.00
1277;DHT22;631;51.024;13.826;2024-01-15T03:53:26;2.20;1.00
1277;DHT22;631;51.024;13.826;2024-01-15T03:55:51;2.20;1.00
1277;DHT22;631;51.024;13.826;2024-01-15T03:58:17;2.30;1.00
1277;DHT22;631;51.024;13.826;2024-01-15T04:00:43;2.20;1.00
1277;DHT22;631;51.024;13.826;2024-01-15T04:03:09;2.20;1.00
1277;DHT22;631;51.024;13.826;2024-01-15T04:05:35;2.20;1.00
1277;DHT22;631;51.024;13.826;2024-01-15T04:08:00;2.20;1.00
1277;DHT22;631;51.024;13.826;2024-01-15T04:10:26;2.10;1.00
1277;DHT22;631;51.024;13.826;2024-01-15T04:12:52;2.00;1.00
1277;DHT22;631;51.024;13.826;2024-01-15T04:15:17;2.00;1.00
1277;DHT22;631;51.024;13.826;2024-01-15T04:17:43;2.00;1.00
1277;DHT22;631;51.024;13.826;2024-01-15T04:20:09;2.00;1.00
1277;DHT22;631;51.024;13.826;2024-01-15T04:22:35;1.90;1.00
1277;DHT22;631;51.024;13.826;2024-01-15T04:25:01;1.90;1.00
1277;DHT22;631;51.024;13.826;2024-01-15T04:27:27;1.90;1.00
1277;DHT22;631;51.024;13.826;2024-01-15T04:29:53;1.90;1.00
1277;DHT22;631;51.024;13.826;2024-01-15T04:32:19;1.80;1.00
1277;DHT22;631;51.024;13.826;2024-01-15T04:34:45;1.80;1.00
1277;DHT22;631;51.024;13.826;2024-01-15T04:37:10;1.80;1.00
1277;DHT22;631;51.024;13.826;2024-01-15T04:39:36;1.90;1.00
1277;DHT22;631;51.024;13.826;2024-01-15T04:42:02;1.90;1.00
1277;DHT22;631;51.024;13.826;2024-01-15T04:44:28;1.90;1.00
1277;DHT22;631;51.024;13.826;2024-01-15T04:46:53;1.90;1.00
1277;DHT22;631;51.024;13.826;2024-01-15T04:49:19;2.00;1.00
1277;DHT22;631;51.024;13.826;2024-01-15T04:51:45;1.90;1.00
1277;DHT22;631;51.024;13.826;2024-01-15T04:54:10;1.80;1.00
1277;DHT22;631;51.024;13.826;2024-01-15T04:56:36;1.90;1.00
1277;DHT22;631;51.024;13.826;2024-01-15T04:59:02;1.90;1.00
1277;DHT22;631;51.024;13.826;2024-01-15T05:01:32;1.80;1.00
1277;DHT22;631;51.024;13.826;2024-01-15T05:03:58;1.80;1.00
1277;DHT22;631;51.024;13.826;2024-01-15T05:06:23;1.80;1.00
1277;DHT22;631;51.024;13.826;2024-01-15T05:08:49;1.80;1.00
1277;DHT22;631;51.024;13.826;2024-01-15T05:11:14;1.70;1.00
1277;DHT22;631;51.024;13.826;2024-01-15T05:13:40;1.70;1.00
1277;DHT22;631;51.024;13.826;2024-01-15T05:16:06;1.60;1.00
1277;DHT22;631;51.024;13.826;2024-01-15T05:18:31;1.50;1.00
1277;DHT22;631;51.024;13.826;2024-01-15T05:20:57;1.60;1.00
1277;DHT22;631;51.024;13.826;2024-01-15T05:23:23;1.60;1.00
1277;DHT22;631;51.024;13.826;2024-01-15T05:25:48;1.60;1.00
1277;DHT22;631;51.024;13.826;2024-01-15T05:28:14;1.60;1.00
1277;DHT22;631;51.024;13.826;2024-01-15T05:30:40;1.60;1.00
1277;DHT22;631;51.024;13.826;2024-01-15T05:33:05;1.50;1.00
1277;DHT22;631;51.024;13.826;2024-01-15T05:35:33;1.50;1.00
1277;DHT22;631;51.024;13.826;2024-01-15T05:37:58;1.50;1.00
1277;DHT22;631;51.024;13.826;2024-01-15T05:40:24;1.50;1.00
1277;DHT22;631;51.024;13.826;2024-01-15T05:42:50;1.50;1.00
1277;DHT22;631;51.024;13.826;2024-01-15T05:45:15;1.50;1.00
1277;DHT22;631;51.024;13.826;2024-01-15T05:47:41;1.50;1.00
1277;DHT22;631;51.024;13.826;2024-01-15T05:50:07;1.40;1.00
1277;DHT22;631;51.024;13.826;2024-01-15T05:52:32;1.40;1.00
1277;DHT22;631;51.024;13.826;2024-01-15T05:54:58;1.40;1.00
1277;DHT22;631;51.024;13.826;2024-01-15T05:57:24;1.50;1.00
1277;DHT22;631;51.024;13.826;2024-01-15T05:59:49;1.50;1.00
1277;DHT22;631;51.024;13.826;2024-01-15T06:02:15;1.50;1.00
1277;DHT22;631;51.024;13.826;2024-01-15T06:04:40;1.50;1.00
1277;DHT22;631;51.024;13.826;2024-01-15T06:07:06;1.50;1.00
1277;DHT22;631;51.024;13.826;2024-01-15T06:09:32;1.50;1.00
1277;DHT22;631;51.024;13.826;2024-01-15T06:11:57;1.50;1.00
1277;DHT22;631;51.024;13.826;2024-01-15T06:14:23;1.50;1.00
1277;DHT22;631;51.024;13.826;2024-01-15T06:16:49;1.50;1.00
1277;DHT22;631;51.024;13.826;2024-01-15T06:19:14;1.60;1.00
1277;DHT22;631;51.024;13.826;2024-01-15T06:21:40;1.50;1.00
1277;DHT22;631;51.024;13.826;2024-01-15T06:24:06;1.50;1.00
1277;DHT22;631;51.024;13.826;2024-01-15T06:26:31;1.50;1.00
1277;DHT22;631;51.024;13.826;2024-01-15T06:28:57;1.60;1.00
1277;DHT22;631;51.024;13.826;2024-01-15T06:31:23;1.60;1.00
1277;DHT22;631;51.024;13.826;2024-01-15T06:33:48;1.60;1.00
1277;DHT22;631;51.024;13.826;2024-01-15T06:36:14;1.60;1.00
1277;DHT22;631;51.024;13.826;2024-01-15T06:38:43;1.60;1.00
1277;DHT22;631;51.024;13.826;2024-01-15T06:41:08;1.50;1.00
1277;DHT22;631;51.024;13.826;2024-01-15T06:43:34;1.60;1.00
1277;DHT22;631;51.024;13.826;2024-01-15T06:45:59;1.60;1.00
1277;DHT22;631;51.024;13.826;2024-01-15T06:48:25;1.60;1.00
1277;DHT22;631;51.024;13.826;2024-01-15T06:50:50;1.60;1.00
1277;DHT22;631;51.024;13.826;2024-01-15T06:53:16;1.70;1.00
1277;DHT22;631;51.024;13.826;2024-01-15T06:55:42;1.70;1.00
1277;DHT22;631;51.024;13.826;2024-01-15T06:58:07;1.80;1.00
1277;DHT22;631;51.024;13.826;2024-01-15T07:00:33;1.80;1.00
1277;DHT22;631;51.024;13.826;2024-01-15T07:02:59;1.80;1.00
1277;DHT22;631;51.024;13.826;2024-01-15T07:05:24;1.90;1.00
1277;DHT22;631;51.024;13.826;2024-01-15T07:07:50;1.90;1.00
1277;DHT22;631;51.024;13.826;2024-01-15T07:10:16;1.80;1.00
1277;DHT22;631;51.024;13.826;2024-01-15T07:12:42;1.80;1.00
1277;DHT22;631;51.024;13.826;2024-01-15T07:15:08;1.80;1.00
1277;DHT22;631;51.024;13.826;2024-01-15T07:17:35;1.70;1.00
1277;DHT22;631;51.024;13.826;2024-01-15T07:20:01;1.80;1.00
1277;DHT22;631;51.024;13.826;2024-01-15T07:22:27;1.70;1.00
1277;DHT22;631;51.024;13.826;2024-01-15T07:24:52;1.80;1.00
1277;DHT22;631;51.024;13.826;2024-01-15T07:27:18;1.80;1.00
1277;DHT22;631;51.024;13.826;2024-01-15T07:29:44;1.90;1.00
1277;DHT22;631;51.024;13.826;2024-01-15T07:32:10;1.90;1.00
1277;DHT22;631;51.024;13.826;2024-01-15T07:34:35;1.90;1.00
1277;DHT22;631;51.024;13.826;2024-01-15T07:37:01;1.80;1.00
1277;DHT22;631;51.024;13.826;2024-01-15T07:39:26;1.90;1.00
1277;DHT22;631;51.024;13.826;2024-01-15T07:41:54;1.90;1.00
1277;DHT22;631;51.024;13.826;2024-01-15T07:44:20;2.00;1.00
1277;DHT22;631;51.024;13.826;2024-01-15T07:46:48;1.90;1.00
1277;DHT22;631;51.024;13.826;2024-01-15T07:49:14;1.90;1.00
1277;DHT22;631;51.024;13.826;2024-01-15T07:51:40;1.80;1.00
1277;DHT22;631;51.024;13.826;2024-01-15T07:54:06;1.90;1.00
1277;DHT22;631;51.024;13.826;2024-01-15T07:56:32;1.80;1.00
1277;DHT22;631;51.024;13.826;2024-01-15T07:58:58;1.80;1.00
1277;DHT22;631;51.024;13.826;2024-01-15T08:01:24;1.90;1.00
1277;DHT22;631;51.024;13.826;2024-01-15T08:03:49;1.90;1.00
1277;DHT22;631;51.024;13.826;2024-01-15T08:06:15;1.90;1.00
1277;DHT22;631;51.024;13.826;2024-01-15T08:08:41;2.00;1.00
1277;DHT22;631;51.024;13.826;2024-01-15T08:11:06;1.90;1.00
1277;DHT22;631;51.024;13.826;2024-01-15T08:13:32;2.00;1.00
1277;DHT22;631;51.024;13.826;2024-01-15T08:15:58;1.90;1.00
1277;DHT22;631;51.024;13.826;2024-01-15T08:18:24;2.00;1.00
1277;DHT22;631;51.024;13.826;2024-01-15T08:20:50;2.10;1.00
1277;DHT22;631;51.024;13.826;2024-01-15T08:23:17;2.10;1.00
1277;DHT22;631;51.024;13.826;2024-01-15T08:25:43;2.10;1.00
1277;DHT22;631;51.024;13.826;2024-01-15T08:28:08;2.10;1.00
1277;DHT22;631;51.024;13.826;2024-01-15T08:30:34;2.10;1.00
1277;DHT22;631;51.024;13.826;2024-01-15T08:33:00;2.20;1.00
1277;DHT22;631;51.024;13.826;2024-01-15T08:35:25;2.10;1.00
1277;DHT22;631;51.024;13.826;2024-01-15T08:37:54;2.20;1.00
1277;DHT22;631;51.024;13.826;2024-01-15T08:40:20;2.20;1.00
1277;DHT22;631;51.024;13.826;2024-01-15T08:42:45;2.30;1.00
1277;DHT22;631;51.024;13.826;2024-01-15T08:45:11;2.50;1.00
1277;DHT22;631;51.024;13.826;2024-01-15T08:47:37;2.50;1.00
1277;DHT22;631;51.024;13.826;2024-01-15T08:50:04;2.60;1.00
1277;DHT22;631;51.024;13.826;2024-01-15T08:52:30;2.40;1.00
1277;DHT22;631;51.024;13.826;2024-01-15T08:54:57;2.40;1.00
1277;DHT22;631;51.024;13.826;2024-01-15T08:57:22;2.50;1.00
1277;DHT22;631;51.024;13.826;2024-01-15T08:59:48;2.60;78.80
1277;DHT22;631;51.024;13.826;2024-01-15T09:02:14;2.40;99.90
1277;DHT22;631;51.024;13.826;2024-01-15T09:04:40;2.60;99.90
1277;DHT22;631;51.024;13.826;2024-01-15T09:07:07;2.70;1.00
1277;DHT22;631;51.024;13.826;2024-01-15T09:09:33;2.70;1.00
1277;DHT22;631;51.024;13.826;2024-01-15T09:11:59;2.50;1.00
1277;DHT22;631;51.024;13.826;2024-01-15T09:14:25;2.50;1.00
1277;DHT22;631;51.024;13.826;2024-01-15T09:16:52;2.60;1.00
1277;DHT22;631;51.024;13.826;2024-01-15T09:19:18;2.70;13.50
1277;DHT22;631;51.024;13.826;2024-01-15T09:21:44;2.80;26.30
1277;DHT22;631;51.024;13.826;2024-01-15T09:24:10;2.80;46.70
1277;DHT22;631;51.024;13.826;2024-01-15T09:26:35;3.10;94.10
1277;DHT22;631;51.024;13.826;2024-01-15T09:29:01;3.20;94.40
1277;DHT22;631;51.024;13.826;2024-01-15T09:31:28;3.40;94.70
1277;DHT22;631;51.024;13.826;2024-01-15T09:33:53;3.70;94.30
1277;DHT22;631;51.024;13.826;2024-01-15T09:36:22;3.80;93.40
1277;DHT22;631;51.024;13.826;2024-01-15T09:38:48;3.60;93.40
1277;DHT22;631;51.024;13.826;2024-01-15T09:41:14;3.40;94.00
1277;DHT22;631;51.024;13.826;2024-01-15T09:43:40;3.20;93.90
1277;DHT22;631;51.024;13.826;2024-01-15T09:46:06;3.20;94.10
1277;DHT22;631;51.024;13.826;2024-01-15T09:48:32;3.10;94.30
1277;DHT22;631;51.024;13.826;2024-01-15T09:51:03;3.20;94.50
1277;DHT22;631;51.024;13.826;2024-01-15T09:53:31;3.20;94.30
1277;DHT22;631;51.024;13.826;2024-01-15T09:55:58;3.10;94.20
1277;DHT22;631;51.024;13.826;2024-01-15T09:58:23;3.10;94.10
1277;DHT22;631;51.024;13.826;2024-01-15T10:00:50;3.10;94.50
1277;DHT22;631;51.024;13.826;2024-01-15T10:03:17;3.20;94.10
1277;DHT22;631;51.024;13.826;2024-01-15T10:05:43;3.30;93.90
1277;DHT22;631;51.024;13.826;2024-01-15T10:08:09;3.30;93.70
1277;DHT22;631;51.024;13.826;2024-01-15T10:10:36;3.30;93.90
1277;DHT22;631;51.024;13.826;2024-01-15T10:13:03;3.20;93.60
1277;DHT22;631;51.024;13.826;2024-01-15T10:15:29;3.10;93.60
1277;DHT22;631;51.024;13.826;2024-01-15T10:17:55;3.20;94.00
1277;DHT22;631;51.024;13.826;2024-01-15T10:20:21;3.40;93.70
1277;DHT22;631;51.024;13.826;2024-01-15T10:22:50;3.50;92.90
1277;DHT22;631;51.024;13.826;2024-01-15T10:25:16;3.30;93.10
1277;DHT22;631;51.024;13.826;2024-01-15T10:27:42;3.60;93.00
1277;DHT22;631;51.024;13.826;2024-01-15T10:30:09;3.70;93.00
1277;DHT22;631;51.024;13.826;2024-01-15T10:32:35;4.20;92.10
1277;DHT22;631;51.024;13.826;2024-01-15T10:35:00;4.40;91.20
1277;DHT22;631;51.024;13.826;2024-01-15T10:37:26;4.10;91.20
1277;DHT22;631;51.024;13.826;2024-01-15T10:39:52;4.20;91.60
1277;DHT22;631;51.024;13.826;2024-01-15T10:42:18;4.50;91.10
1277;DHT22;631;51.024;13.826;2024-01-15T10:44:44;4.60;91.00
1277;DHT22;631;51.024;13.826;2024-01-15T10:47:12;5.10;90.70
1277;DHT22;631;51.024;13.826;2024-01-15T10:49:38;4.90;88.90
1277;DHT22;631;51.024;13.826;2024-01-15T10:52:05;4.80;89.70
1277;DHT22;631;51.024;13.826;2024-01-15T10:54:32;4.40;89.30
1277;DHT22;631;51.024;13.826;2024-01-15T10:56:58;4.60;90.40
1277;DHT22;631;51.024;13.826;2024-01-15T10:59:24;4.50;90.10
1277;DHT22;631;51.024;13.826;2024-01-15T11:01:53;4.30;90.20
1277;DHT22;631;51.024;13.826;2024-01-15T11:04:20;4.20;90.40
1277;DHT22;631;51.024;13.826;2024-01-15T11:06:52;3.90;90.60
1277;DHT22;631;51.024;13.826;2024-01-15T11:09:18;3.80;91.00
1277;DHT22;631;51.024;13.826;2024-01-15T11:11:45;3.90;91.00
1277;DHT22;631;51.024;13.826;2024-01-15T11:15:01;3.90;90.70
1277;DHT22;631;51.024;13.826;2024-01-15T11:17:22;3.80;91.00
1277;DHT22;631;51.024;13.826;2024-01-15T11:19:49;3.90;90.80
1277;DHT22;631;51.024;13.826;2024-01-15T11:24:55;4.40;90.00
1277;DHT22;631;51.024;13.826;2024-01-15T11:27:43;4.50;89.50
1277;DHT22;631;51.024;13.826;2024-01-15T11:30:10;4.20;89.20
1277;DHT22;631;51.024;13.826;2024-01-15T11:32:36;4.00;90.30
1277;DHT22;631;51.024;13.826;2024-01-15T11:35:02;3.90;90.50
1277;DHT22;631;51.024;13.826;2024-01-15T11:40:22;3.70;90.70
1277;DHT22;631;51.024;13.826;2024-01-15T11:42:48;3.70;91.10
1277;DHT22;631;51.024;13.826;2024-01-15T11:45:19;3.80;91.30
1277;DHT22;631;51.024;13.826;2024-01-15T11:50:32;3.90;90.90
1277;DHT22;631;51.024;13.826;2024-01-15T11:53:03;3.90;90.70
1277;DHT22;631;51.024;13.826;2024-01-15T11:55:39;4.30;90.60
1277;DHT22;631;51.024;13.826;2024-01-15T11:58:09;4.40;89.10
1277;DHT22;631;51.024;13.826;2024-01-15T12:00:48;4.50;90.00
1277;DHT22;631;51.024;13.826;2024-01-15T12:03:15;4.60;90.10
1277;DHT22;631;51.024;13.826;2024-01-15T12:05:41;4.50;89.50
1277;DHT22;631;51.024;13.826;2024-01-15T12:08:07;4.70;89.30
1277;DHT22;631;51.024;13.826;2024-01-15T12:10:37;4.50;88.80
1277;DHT22;631;51.024;13.826;2024-01-15T12:13:06;4.20;89.00
1277;DHT22;631;51.024;13.826;2024-01-15T12:15:35;4.10;89.90
1277;DHT22;631;51.024;13.826;2024-01-15T12:18:01;4.10;90.20
1277;DHT22;631;51.024;13.826;2024-01-15T12:20:28;4.10;90.50
1277;DHT22;631;51.024;13.826;2024-01-15T12:22:55;4.00;90.60
1277;DHT22;631;51.024;13.826;2024-01-15T12:25:21;4.00;90.80
1277;DHT22;631;51.024;13.826;2024-01-15T12:27:47;3.80;91.10
1277;DHT22;631;51.024;13.826;2024-01-15T12:30:13;3.80;91.60
1277;DHT22;631;51.024;13.826;2024-01-15T12:32:41;3.70;91.70
1277;DHT22;631;51.024;13.826;2024-01-15T12:35:08;3.60;92.20
1277;DHT22;631;51.024;13.826;2024-01-15T12:37:38;3.50;92.90
1277;DHT22;631;51.024;13.826;2024-01-15T12:40:05;3.50;92.70
1277;DHT22;631;51.024;13.826;2024-01-15T12:42:39;3.50;93.00
1277;DHT22;631;51.024;13.826;2024-01-15T12:45:06;3.40;93.10
1277;DHT22;631;51.024;13.826;2024-01-15T12:47:32;3.50;93.40
1277;DHT22;631;51.024;13.826;2024-01-15T12:49:59;3.60;93.20
1277;DHT22;631;51.024;13.826;2024-01-15T12:52:28;3.70;93.40
1277;DHT22;631;51.024;13.826;2024-01-15T12:54:54;3.50;93.50
1277;DHT22;631;51.024;13.826;2024-01-15T12:57:20;3.50;94.00
1277;DHT22;631;51.024;13.826;2024-01-15T12:59:46;3.50;94.40
1277;DHT22;631;51.024;13.826;2024-01-15T13:02:13;3.40;94.60
1277;DHT22;631;51.024;13.826;2024-01-15T13:04:39;3.20;94.90
1277;DHT22;631;51.024;13.826;2024-01-15T13:07:08;3.30;95.40
1277;DHT22;631;51.024;13.826;2024-01-15T13:09:34;3.20;95.90
1277;DHT22;631;51.024;13.826;2024-01-15T13:12:03;3.30;96.10
1277;DHT22;631;51.024;13.826;2024-01-15T13:14:31;3.10;96.30
1277;DHT22;631;51.024;13.826;2024-01-15T13:16:58;3.00;96.80
1277;DHT22;631;51.024;13.826;2024-01-15T13:19:24;3.00;97.40
1277;DHT22;631;51.024;13.826;2024-01-15T13:21:49;2.90;97.90
1277;DHT22;631;51.024;13.826;2024-01-15T13:24:17;2.90;98.20
1277;DHT22;631;51.024;13.826;2024-01-15T13:26:42;2.70;98.50
1277;DHT22;631;51.024;13.826;2024-01-15T13:29:08;2.60;99.10
1277;DHT22;631;51.024;13.826;2024-01-15T13:31:34;2.70;99.70
1277;DHT22;631;51.024;13.826;2024-01-15T13:34:00;2.80;99.60
1277;DHT22;631;51.024;13.826;2024-01-15T13:36:26;2.90;99.10
1277;DHT22;631;51.024;13.826;2024-01-15T13:38:53;2.80;99.30
1277;DHT22;631;51.024;13.826;2024-01-15T13:41:20;2.80;99.60
1277;DHT22;631;51.024;13.826;2024-01-15T13:43:54;2.80;99.70
1277;DHT22;631;51.024;13.826;2024-01-15T13:46:24;3.00;99.80
1277;DHT22;631;51.024;13.826;2024-01-15T13:48:52;3.00;99.60
1277;DHT22;631;51.024;13.826;2024-01-15T13:51:17;2.90;99.80
1277;DHT22;631;51.024;13.826;2024-01-15T13:53:43;2.80;99.90
1277;DHT22;631;51.024;13.826;2024-01-15T13:56:08;2.80;99.90
1277;DHT22;631;51.024;13.826;2024-01-15T13:58:36;2.80;99.90
1277;DHT22;631;51.024;13.826;2024-01-15T14:01:01;2.80;99.90
1277;DHT22;631;51.024;13.826;2024-01-15T14:03:29;2.80;99.90
1277;DHT22;631;51.024;13.826;2024-01-15T14:05:55;2.90;99.90
1277;DHT22;631;51.024;13.826;2024-01-15T14:08:20;2.80;99.90
1277;DHT22;631;51.024;13.826;2024-01-15T14:10:46;2.60;99.90
1277;DHT22;631;51.024;13.826;2024-01-15T14:13:12;2.40;99.90
1277;DHT22;631;51.024;13.826;2024-01-15T14:15:37;2.20;99.90
1277;DHT22;631;51.024;13.826;2024-01-15T14:18:03;2.00;99.90
1277;DHT22;631;51.024;13.826;2024-01-15T14:20:30;2.00;99.90
1277;DHT22;631;51.024;13.826;2024-01-15T14:22:56;1.90;99.90
1277;DHT22;631;51.024;13.826;2024-01-15T14:25:22;1.90;99.90
1277;DHT22;631;51.024;13.826;2024-01-15T14:27:47;1.90;99.90
1277;DHT22;631;51.024;13.826;2024-01-15T14:30:13;1.80;99.90
1277;DHT22;631;51.024;13.826;2024-01-15T14:32:41;1.80;99.90
1277;DHT22;631;51.024;13.826;2024-01-15T14:35:07;1.70;99.20
1277;DHT22;631;51.024;13.826;2024-01-15T14:37:38;1.80;95.70
1277;DHT22;631;51.024;13.826;2024-01-15T14:40:08;1.80;94.50
1277;DHT22;631;51.024;13.826;2024-01-15T14:42:34;1.80;94.80
1277;DHT22;631;51.024;13.826;2024-01-15T14:45:00;1.80;1.00
1277;DHT22;631;51.024;13.826;2024-01-15T14:47:27;1.70;96.60
1277;DHT22;631;51.024;13.826;2024-01-15T14:49:53;1.70;1.00
1277;DHT22;631;51.024;13.826;2024-01-15T14:52:19;1.60;99.90
1277;DHT22;631;51.024;13.826;2024-01-15T14:54:45;1.60;1.00
1277;DHT22;631;51.024;13.826;2024-01-15T14:57:13;1.50;99.90
1277;DHT22;631;51.024;13.826;2024-01-15T14:59:38;1.50;99.90
1277;DHT22;631;51.024;13.826;2024-01-15T15:02:04;1.40;99.90
1277;DHT22;631;51.024;13.826;2024-01-15T15:04:30;1.50;1.00
1277;DHT22;631;51.024;13.826;2024-01-15T15:06:56;1.40;99.90
1277;DHT22;631;51.024;13.826;2024-01-15T15:09:22;1.30;1.00
1277;DHT22;631;51.024;13.826;2024-01-15T15:11:48;1.30;99.90
1277;DHT22;631;51.024;13.826;2024-01-15T15:14:13;1.30;99.90
1277;DHT22;631;51.024;13.826;2024-01-15T15:16:39;1.30;99.90
1277;DHT22;631;51.024;13.826;2024-01-15T15:19:04;1.20;1.00
1277;DHT22;631;51.024;13.826;2024-01-15T15:21:30;1.30;1.00
1277;DHT22;631;51.024;13.826;2024-01-15T15:23:55;1.20;1.00
1277;DHT22;631;51.024;13.826;2024-01-15T15:26:21;1.20;1.00
1277;DHT22;631;51.024;13.826;2024-01-15T15:28:47;1.20;1.00
1277;DHT22;631;51.024;13.826;2024-01-15T15:31:13;1.20;1.00
1277;DHT22;631;51.024;13.826;2024-01-15T15:33:39;1.30;1.00
1277;DHT22;631;51.024;13.826;2024-01-15T15:36:05;1.30;1.00
1277;DHT22;631;51.024;13.826;2024-01-15T15:38:34;1.20;1.00
1277;DHT22;631;51.024;13.826;2024-01-15T15:41:00;1.20;99.90
1277;DHT22;631;51.024;13.826;2024-01-15T15:43:27;1.20;99.90
1277;DHT22;631;51.024;13.826;2024-01-15T15:45:52;1.30;99.90
1277;DHT22;631;51.024;13.826;2024-01-15T15:48:18;1.30;99.90
1277;DHT22;631;51.024;13.826;2024-01-15T15:50:44;1.30;1.00
1277;DHT22;631;51.024;13.826;2024-01-15T15:53:10;1.40;99.90
1277;DHT22;631;51.024;13.826;2024-01-15T15:55:36;1.40;1.00
1277;DHT22;631;51.024;13.826;2024-01-15T15:58:03;1.40;99.90
1277;DHT22;631;51.024;13.826;2024-01-15T16:00:29;1.40;1.00
1277;DHT22;631;51.024;13.826;2024-01-15T16:02:55;1.40;1.00
1277;DHT22;631;51.024;13.826;2024-01-15T16:05:20;1.40;99.90
1277;DHT22;631;51.024;13.826;2024-01-15T16:07:46;1.40;1.00
1277;DHT22;631;51.024;13.826;2024-01-15T16:10:12;1.40;99.90
1277;DHT22;631;51.024;13.826;2024-01-15T16:12:37;1.50;99.90
1277;DHT22;631;51.024;13.826;2024-01-15T16:15:20;1.50;99.90
1277;DHT22;631;51.024;13.826;2024-01-15T16:17:49;1.50;99.90
1277;DHT22;631;51.024;13.826;2024-01-15T16:20:19;1.60;1.00
1277;DHT22;631;51.024;13.826;2024-01-15T16:22:45;1.60;1.00
1277;DHT22;631;51.024;13.826;2024-01-15T16:25:11;1.60;99.90
1277;DHT22;631;51.024;13.826;2024-01-15T16:27:37;1.60;99.90
1277;DHT22;631;51.024;13.826;2024-01-15T16:30:03;1.60;99.90